createdAt,value
2022-11-29T00:01:32.634Z,100792.72
2022-11-29T00:04:34.495Z,100798.97
2022-11-29T00:07:36.566Z,100798.34
2022-11-29T00:10:38.644Z,100808.00
2022-11-29T00:13:40.665Z,100810.66
2022-11-29T00:16:42.757Z,100818.72
2022-11-29T00:19:45.247Z,100821.13
2022-11-29T00:22:47.142Z,100809.00
2022-11-29T00:25:49.023Z,100818.72
2022-11-29T00:28:50.987Z,100808.31
2022-11-29T00:31:53.168Z,100813.47
2022-11-29T00:34:57.260Z,100811.06
2022-11-29T00:38:01.295Z,100805.63
2022-11-29T00:41:03.649Z,100806.38
2022-11-29T00:44:05.679Z,100808.19
2022-11-29T00:47:07.581Z,100805.38
2022-11-29T00:50:09.726Z,100811.94
2022-11-29T00:53:11.632Z,100801.22
2022-11-29T00:56:13.651Z,100802.19
2022-11-29T00:59:15.561Z,100809.84
2022-11-29T01:02:17.475Z,100816.66
2022-11-29T01:05:19.922Z,100813.34
2022-11-29T01:08:21.760Z,100802.63
2022-11-29T01:11:26.412Z,100806.84
2022-11-29T01:14:28.291Z,100802.19
2022-11-29T01:17:30.185Z,100798.91
2022-11-29T01:20:32.091Z,100795.94
2022-11-29T01:23:35.352Z,100803.00
2022-11-29T01:26:37.325Z,100803.25
2022-11-29T01:29:39.282Z,100797.19
2022-11-29T01:32:41.171Z,100799.56
2022-11-29T01:35:51.639Z,100798.72
2022-11-29T01:38:53.550Z,100797.91
2022-11-29T01:41:55.523Z,100798.66
2022-11-29T01:45:01.891Z,100791.28
2022-11-29T01:48:04.427Z,100784.50
2022-11-29T01:51:06.345Z,100790.50
2022-11-29T01:54:10.173Z,100788.72
2022-11-29T01:57:13.143Z,100793.06
2022-11-29T02:00:19.904Z,100794.41
2022-11-29T02:03:21.763Z,100786.53
2022-11-29T02:06:23.799Z,100784.44
2022-11-29T02:09:25.590Z,100778.25
2022-11-29T02:12:36.436Z,100779.16
2022-11-29T02:15:46.314Z,100776.97
2022-11-29T02:19:03.057Z,100771.38
2022-11-29T02:22:31.405Z,100773.59
2022-11-29T02:25:51.337Z,100777.16
2022-11-29T02:29:29.665Z,100767.66
2022-11-29T02:32:49.354Z,100765.19
2022-11-29T02:36:06.077Z,100763.69
2022-11-29T02:39:24.481Z,100766.13
2022-11-29T02:42:29.379Z,100756.38
2022-11-29T02:45:59.116Z,100754.00
2022-11-29T02:49:14.522Z,100746.97
2022-11-29T02:52:27.887Z,100748.00
2022-11-29T02:56:17.451Z,100743.53
2022-11-29T02:59:38.059Z,100752.22
2022-11-29T03:02:53.101Z,100740.34
2022-11-29T03:06:07.434Z,100753.56
2022-11-29T03:09:27.602Z,100761.72
2022-11-29T03:12:40.409Z,100761.47
2022-11-29T03:15:53.932Z,100756.16
2022-11-29T03:19:15.328Z,100768.28
2022-11-29T03:22:32.994Z,100778.50
2022-11-29T03:25:47.340Z,100780.47
2022-11-29T03:29:07.006Z,100787.63
2022-11-29T03:32:14.772Z,100790.31
2022-11-29T03:35:19.295Z,100792.09
2022-11-29T03:38:41.622Z,100778.06
2022-11-29T03:41:49.850Z,100786.88
2022-11-29T03:45:05.811Z,100789.00
2022-11-29T03:48:24.616Z,100784.91
2022-11-29T03:51:47.298Z,100778.84
2022-11-29T03:55:01.056Z,100785.31
2022-11-29T03:58:44.030Z,100791.53
2022-11-29T04:02:20.200Z,100795.53
2022-11-29T04:05:40.646Z,100808.75
2022-11-29T04:08:51.771Z,100813.38
2022-11-29T04:12:19.662Z,100818.66
2022-11-29T04:15:48.446Z,100824.03
2022-11-29T04:19:11.715Z,100843.19
2022-11-29T04:22:31.809Z,100845.88
2022-11-29T04:26:10.851Z,100848.44
2022-11-29T04:29:21.774Z,100848.97
2022-11-29T04:33:00.298Z,100856.03
2022-11-29T04:36:32.347Z,100855.41
2022-11-29T04:39:46.287Z,100845.00
2022-11-29T04:43:06.806Z,100846.06
2022-11-29T04:46:16.893Z,100844.09
2022-11-29T04:49:28.053Z,100843.16
2022-11-29T04:53:03.392Z,100854.78
2022-11-29T04:56:43.567Z,100862.88
2022-11-29T04:59:54.193Z,100863.56
2022-11-29T05:03:04.792Z,100870.22
2022-11-29T05:06:50.088Z,100867.75
2022-11-29T05:10:03.454Z,100868.84
2022-11-29T05:13:24.996Z,100864.44
2022-11-29T05:16:38.753Z,100859.97
2022-11-29T05:20:10.506Z,100861.06
2022-11-29T05:23:44.863Z,100863.78
2022-11-29T05:27:03.755Z,100868.03
2022-11-29T05:30:20.620Z,100854.44
2022-11-29T05:33:37.456Z,100862.22
2022-11-29T05:36:50.066Z,100871.25
2022-11-29T05:40:34.858Z,100879.84
2022-11-29T05:43:59.801Z,100873.00
2022-11-29T05:47:04.352Z,100880.09
2022-11-29T05:50:18.673Z,100881.81
2022-11-29T05:53:27.575Z,100882.13
2022-11-29T05:57:01.606Z,100898.94
2022-11-29T06:00:06.414Z,100906.88
2022-11-29T06:03:46.849Z,100911.81
2022-11-29T06:07:08.839Z,100907.03
2022-11-29T06:10:17.886Z,100913.38
2022-11-29T06:13:57.100Z,100925.09
2022-11-29T06:17:23.057Z,100921.38
2022-11-29T06:20:58.663Z,100922.44
2022-11-29T06:24:25.730Z,100932.97
2022-11-29T06:28:04.886Z,100933.97
2022-11-29T06:31:18.938Z,100938.63
2022-11-29T06:34:36.224Z,100944.81
2022-11-29T06:37:48.945Z,100943.09
2022-11-29T06:40:53.234Z,100947.53
2022-11-29T06:43:58.126Z,100952.03
2022-11-29T06:47:09.354Z,100948.66
2022-11-29T12:47:35.689Z,100805.63
2022-11-29T12:51:03.725Z,100803.03
2022-11-29T12:54:24.615Z,100806.34
2022-11-29T12:57:50.863Z,100809.91
2022-11-29T13:01:21.360Z,100817.09
2022-11-29T13:04:49.346Z,100809.91
2022-11-29T13:08:20.186Z,100816.91
2022-11-29T13:11:49.348Z,100814.13
2022-11-29T13:15:17.153Z,100819.00
2022-11-29T13:18:23.393Z,100815.78
2022-11-29T13:21:37.268Z,100805.16
2022-11-29T13:24:50.895Z,100807.88
2022-11-29T13:28:03.720Z,100805.56
2022-11-29T13:31:09.599Z,100817.91
2022-11-29T13:34:41.558Z,100807.56
2022-11-29T13:37:55.189Z,100817.63
2022-11-29T13:41:19.793Z,100816.91
2022-11-29T13:44:46.180Z,100807.88
2022-11-29T13:47:50.556Z,100808.06
2022-11-29T13:50:52.373Z,100810.84
2022-11-29T13:54:03.387Z,100811.63
2022-11-29T13:57:09.631Z,100817.03
2022-11-29T20:15:05.387Z,100927.19
2022-11-29T20:18:07.658Z,100938.44
2022-11-29T20:21:15.085Z,100942.75
2022-11-29T20:24:18.009Z,100931.41
2022-11-29T20:27:20.742Z,100933.25
2022-11-29T20:30:22.823Z,100927.94
2022-11-29T20:33:25.634Z,100944.69
2022-11-29T20:36:45.477Z,100949.97
2022-11-29T20:40:08.583Z,100948.22
2022-11-29T20:43:22.599Z,100952.03
2022-11-29T20:46:25.950Z,100940.59
2022-11-29T20:49:28.306Z,100947.47
2022-11-29T20:52:32.931Z,100947.66
2022-11-29T20:55:41.453Z,100952.81
2022-11-29T20:58:48.211Z,100957.31
2022-11-29T21:01:50.948Z,100956.59
2022-11-29T21:04:52.887Z,100963.56
2022-11-29T21:07:54.838Z,100975.75
2022-11-29T21:11:05.961Z,100981.38
2022-11-29T21:14:09.160Z,100968.41
2022-11-29T21:17:11.272Z,100967.47
2022-11-29T21:20:23.595Z,100962.22
2022-11-29T21:24:06.833Z,100969.13
2022-11-29T21:27:14.915Z,100955.34
2022-11-29T21:30:20.020Z,100962.47
2022-11-29T21:33:22.073Z,100948.69
2022-11-29T21:36:24.039Z,100952.41
2022-11-29T21:39:32.809Z,100961.88
2022-11-29T21:42:34.779Z,100960.25
2022-11-29T21:45:36.746Z,100959.41
2022-11-29T21:48:38.581Z,100954.19
2022-11-29T21:51:40.953Z,100951.72
2022-11-29T21:54:42.826Z,100957.97
2022-11-29T21:57:44.691Z,100957.97
2022-11-29T22:00:46.545Z,100944.06
2022-11-29T22:03:48.545Z,100949.34
2022-11-29T22:06:50.594Z,100961.72
2022-11-29T22:09:52.460Z,100952.09
2022-11-29T22:12:54.233Z,100957.31
2022-11-29T22:16:04.762Z,100951.19
2022-11-29T22:19:06.576Z,100961.53
2022-11-29T22:22:10.936Z,100965.13
2022-11-29T22:25:12.766Z,100958.03
2022-11-29T22:28:14.576Z,100952.91
2022-11-29T22:31:16.470Z,100945.06
2022-11-29T22:34:19.016Z,100946.84
2022-11-29T22:37:20.989Z,100942.78
2022-11-29T22:40:22.881Z,100938.19
2022-11-29T22:43:24.729Z,100945.94
2022-11-29T22:46:27.909Z,100939.00
2022-11-29T22:49:30.136Z,100940.88
2022-11-29T22:52:31.974Z,100944.97
2022-11-29T22:55:33.837Z,100947.94
2022-11-29T22:58:36.363Z,100938.94
2022-11-29T23:01:40.796Z,100931.22
2022-11-29T23:04:44.732Z,100929.44
2022-11-29T23:07:47.414Z,100925.94
2022-11-29T23:10:57.185Z,100919.91
2022-11-29T23:13:59.063Z,100906.72
2022-11-29T23:17:00.911Z,100913.84
2022-11-29T23:20:02.778Z,100916.44
2022-11-29T23:23:04.641Z,100897.84
2022-11-29T23:26:08.701Z,100914.44
2022-11-29T23:29:13.966Z,100916.16
2022-11-29T23:32:15.847Z,100913.63
2022-11-29T23:35:17.740Z,100923.19
2022-11-29T23:38:19.592Z,100922.53
2022-11-29T23:41:21.555Z,100922.50
2022-11-29T23:44:23.394Z,100920.06
2022-11-29T23:47:25.321Z,100908.66
2022-11-29T23:50:27.219Z,100918.19
2022-11-29T23:53:29.085Z,100901.75
2022-11-29T23:56:35.385Z,100900.06
2022-11-29T23:59:37.445Z,100901.78
